This is the latest recevied weather packets stored in our database for station/object HB9HJL-11. If no packets are shown the sender has not sent any weather packets the latest 10 day(s).
| Time | Temp. | Humidity | Pressure | Rain* | Wind** | Luminosity | Snow |
|---|---|---|---|---|---|---|---|
| 1777161716 | 6.11° C | 60% | 950 hPa | - | - | - | - |
| 1777160816 | 6.11° C | 59% | 950 hPa | - | - | - | - |
| 1777159916 | 6.11° C | 59% | 949 hPa | - | - | - | - |
| 1777159016 | 6.67° C | 57% | 948 hPa | - | - | - | - |
| 1777158116 | 6.67° C | 57% | 948 hPa | - | - | - | - |
| 1777157216 | 6.67° C | 56% | 947 hPa | - | - | - | - |
| 1777156316 | 7.22° C | 55% | 948 hPa | - | - | - | - |
| 1777155416 | 7.22° C | 55% | 948 hPa | - | - | - | - |
| 1777154516 | 7.78° C | 54% | 947 hPa | - | - | - | - |
| 1777153616 | 7.78° C | 52% | 945 hPa | - | - | - | - |
| 1777152715 | 8.33° C | 51% | 943 hPa | - | - | - | - |
| 1777151815 | 8.33° C | 50% | 942 hPa | - | - | - | - |
| 1777150915 | 8.33° C | 48% | 940 hPa | - | - | - | - |
| 1777150015 | 9.44° C | 51% | 945 hPa | - | - | - | - |
| 1777149115 | 10° C | 50% | 944 hPa | - | - | - | - |
| 1777148215 | 10.56° C | 48% | 943 hPa | - | - | - | - |
| 1777147315 | 11.11° C | 47% | 942 hPa | - | - | - | - |
| 1777146415 | 11.11° C | 46% | 940 hPa | - | - | - | - |
| 1777145515 | 12.78° C | 42% | 937 hPa | - | - | - | - |
| 1777144615 | 13.33° C | 42% | 937 hPa | - | - | - | - |
| 1777143714 | 13.33° C | 41% | 936 hPa | - | - | - | - |
| 1777142813 | 13.89° C | 40% | 934 hPa | - | - | - | - |
| 1777141913 | 15° C | 38% | 931 hPa | - | - | - | - |
| 1777141013 | 16.11° C | 36% | 927 hPa | - | - | - | - |
| 1777140113 | 17.22° C | 31% | 920 hPa | - | - | - | - |
* Rain since midnight (hover to see other rain measurements)
** Current wind speed in m/s (hover to see current wind gust speed)